Terminal Aerodrome Forecast
Issued by NWS

Home | Current Version | Previous Version | Text Only | Print | Product List | Glossary On
Versions: 1 2 3 4 5 6 7 8 9 10 11 12 13 14
397
FTPA31 PHFO 201740
TAFHOG
TAF
PHOG 201740Z 2018/2118 15005KT P6SM SCT040
     FM202100 03010KT P6SM VCSH BKN045
     FM211400 04020G28KT P6SM SCT040
      AMD LTD TO VIS AND WIND 2109/2116=

USA.gov is the U.S. government's official web portal to all federal, state and local government web resources and services.